Terminal Aerodrome Forecast
Issued by NWS Mt. Holly, NJ

Home | Current Version | Previous Version | Text Only | Print | Product List | Glossary On
Versions: 1 2 3 4 5 6 7 8 9 10 11 12 13 14 15 16 17 18 19 20 21 22 23 24 25 26 27 28 29 30 31 32 33 34 35 36
000
FTAK31 PANC 281731
TAFABE
TAF
PABE 281731Z 2818/0118 31015KT P6SM OVC025
      TEMPO 2818/2819 28017KT 3SM -SHSN BKN007
     FM282200 32011KT P6SM SCT020
     FM010600 03007KT P6SM SKC=

USA.gov is the U.S. government's official web portal to all federal, state and local government web resources and services.